sensor_id;sensor_type;location;lat;lon;timestamp;P1;durP1;ratioP1;P2;durP2;ratioP2
10845;SDS011;5476;51.540;7.186;2023-09-18T00:02:25;8.82;;;7.75;;
10845;SDS011;5476;51.540;7.186;2023-09-18T00:04:54;9.40;;;7.85;;
10845;SDS011;5476;51.540;7.186;2023-09-18T00:07:21;9.13;;;8.13;;
10845;SDS011;5476;51.540;7.186;2023-09-18T00:09:48;8.68;;;7.72;;
10845;SDS011;5476;51.540;7.186;2023-09-18T00:12:16;10.07;;;7.93;;
10845;SDS011;5476;51.540;7.186;2023-09-18T00:14:43;8.70;;;7.75;;
10845;SDS011;5476;51.540;7.186;2023-09-18T00:17:10;9.13;;;7.30;;
10845;SDS011;5476;51.540;7.186;2023-09-18T00:19:37;8.40;;;7.70;;
10845;SDS011;5476;51.540;7.186;2023-09-18T00:22:05;10.07;;;7.93;;
10845;SDS011;5476;51.540;7.186;2023-09-18T00:24:33;8.63;;;7.68;;
10845;SDS011;5476;51.540;7.186;2023-09-18T00:27:00;8.77;;;7.82;;
10845;SDS011;5476;51.540;7.186;2023-09-18T00:29:27;8.63;;;7.38;;
10845;SDS011;5476;51.540;7.186;2023-09-18T00:31:53;9.32;;;7.60;;
10845;SDS011;5476;51.540;7.186;2023-09-18T00:34:20;10.27;;;7.50;;
10845;SDS011;5476;51.540;7.186;2023-09-18T00:36:47;9.52;;;8.30;;
10845;SDS011;5476;51.540;7.186;2023-09-18T00:39:16;8.88;;;7.88;;
10845;SDS011;5476;51.540;7.186;2023-09-18T00:41:42;9.52;;;7.57;;
10845;SDS011;5476;51.540;7.186;2023-09-18T00:44:14;8.88;;;7.50;;
10845;SDS011;5476;51.540;7.186;2023-09-18T00:46:41;8.68;;;7.22;;
10845;SDS011;5476;51.540;7.186;2023-09-18T00:49:08;8.00;;;7.20;;
10845;SDS011;5476;51.540;7.186;2023-09-18T00:51:37;8.52;;;7.70;;
10845;SDS011;5476;51.540;7.186;2023-09-18T00:54:04;8.77;;;7.85;;
10845;SDS011;5476;51.540;7.186;2023-09-18T00:56:33;8.73;;;7.93;;
10845;SDS011;5476;51.540;7.186;2023-09-18T00:59:00;9.13;;;7.85;;
10845;SDS011;5476;51.540;7.186;2023-09-18T01:01:29;8.40;;;7.55;;
10845;SDS011;5476;51.540;7.186;2023-09-18T01:03:57;9.52;;;8.18;;
10845;SDS011;5476;51.540;7.186;2023-09-18T01:06:24;9.27;;;7.82;;
10845;SDS011;5476;51.540;7.186;2023-09-18T01:08:55;10.35;;;7.97;;
10845;SDS011;5476;51.540;7.186;2023-09-18T01:11:25;9.00;;;7.88;;
10845;SDS011;5476;51.540;7.186;2023-09-18T01:14:01;8.38;;;7.57;;
10845;SDS011;5476;51.540;7.186;2023-09-18T01:16:35;8.85;;;7.05;;
10845;SDS011;5476;51.540;7.186;2023-09-18T01:19:09;9.57;;;7.38;;
10845;SDS011;5476;51.540;7.186;2023-09-18T01:21:37;8.43;;;7.53;;
10845;SDS011;5476;51.540;7.186;2023-09-18T01:24:06;10.07;;;7.90;;
10845;SDS011;5476;51.540;7.186;2023-09-18T01:26:32;10.20;;;8.07;;
10845;SDS011;5476;51.540;7.186;2023-09-18T01:29:00;8.80;;;7.88;;
10845;SDS011;5476;51.540;7.186;2023-09-18T01:31:27;9.80;;;7.93;;
10845;SDS011;5476;51.540;7.186;2023-09-18T01:33:54;11.60;;;8.85;;
10845;SDS011;5476;51.540;7.186;2023-09-18T01:36:23;10.13;;;8.60;;
10845;SDS011;5476;51.540;7.186;2023-09-18T01:38:50;9.73;;;8.80;;
10845;SDS011;5476;51.540;7.186;2023-09-18T01:41:22;9.60;;;7.60;;
10845;SDS011;5476;51.540;7.186;2023-09-18T01:43:49;9.25;;;8.20;;
10845;SDS011;5476;51.540;7.186;2023-09-18T01:46:16;8.73;;;7.72;;
10845;SDS011;5476;51.540;7.186;2023-09-18T01:48:46;10.07;;;7.85;;
10845;SDS011;5476;51.540;7.186;2023-09-18T01:51:13;9.07;;;7.95;;
10845;SDS011;5476;51.540;7.186;2023-09-18T01:53:40;10.05;;;8.45;;
10845;SDS011;5476;51.540;7.186;2023-09-18T01:56:08;8.55;;;7.47;;
10845;SDS011;5476;51.540;7.186;2023-09-18T01:58:36;9.20;;;7.93;;
10845;SDS011;5476;51.540;7.186;2023-09-18T02:01:03;8.50;;;7.80;;
10845;SDS011;5476;51.540;7.186;2023-09-18T02:03:30;9.75;;;7.82;;
10845;SDS011;5476;51.540;7.186;2023-09-18T02:05:57;10.25;;;7.93;;
10845;SDS011;5476;51.540;7.186;2023-09-18T02:08:24;8.70;;;7.63;;
10845;SDS011;5476;51.540;7.186;2023-09-18T02:10:51;9.13;;;7.50;;
10845;SDS011;5476;51.540;7.186;2023-09-18T02:13:18;10.65;;;8.32;;
10845;SDS011;5476;51.540;7.186;2023-09-18T02:15:46;8.75;;;7.90;;
10845;SDS011;5476;51.540;7.186;2023-09-18T02:18:13;9.70;;;8.55;;
10845;SDS011;5476;51.540;7.186;2023-09-18T02:20:41;11.00;;;8.93;;
10845;SDS011;5476;51.540;7.186;2023-09-18T02:23:09;11.27;;;8.27;;
10845;SDS011;5476;51.540;7.186;2023-09-18T02:25:36;10.13;;;7.90;;
10845;SDS011;5476;51.540;7.186;2023-09-18T02:28:04;10.07;;;7.45;;
10845;SDS011;5476;51.540;7.186;2023-09-18T02:30:31;8.77;;;7.88;;
10845;SDS011;5476;51.540;7.186;2023-09-18T02:32:59;9.73;;;7.97;;
10845;SDS011;5476;51.540;7.186;2023-09-18T02:35:28;9.70;;;7.22;;
10845;SDS011;5476;51.540;7.186;2023-09-18T02:37:55;10.68;;;7.63;;
10845;SDS011;5476;51.540;7.186;2023-09-18T02:40:22;10.50;;;7.82;;
10845;SDS011;5476;51.540;7.186;2023-09-18T02:42:49;10.20;;;7.97;;
10845;SDS011;5476;51.540;7.186;2023-09-18T02:45:16;10.02;;;7.97;;
10845;SDS011;5476;51.540;7.186;2023-09-18T02:47:43;9.23;;;8.02;;
10845;SDS011;5476;51.540;7.186;2023-09-18T02:50:11;11.10;;;8.02;;
10845;SDS011;5476;51.540;7.186;2023-09-18T02:52:38;9.27;;;7.55;;
10845;SDS011;5476;51.540;7.186;2023-09-18T02:55:05;8.98;;;7.63;;
10845;SDS011;5476;51.540;7.186;2023-09-18T02:57:34;11.93;;;7.93;;
10845;SDS011;5476;51.540;7.186;2023-09-18T03:00:02;9.07;;;7.88;;
10845;SDS011;5476;51.540;7.186;2023-09-18T03:02:30;10.02;;;7.53;;
10845;SDS011;5476;51.540;7.186;2023-09-18T03:04:57;8.77;;;7.63;;
10845;SDS011;5476;51.540;7.186;2023-09-18T03:07:25;8.82;;;7.93;;
10845;SDS011;5476;51.540;7.186;2023-09-18T03:09:54;11.02;;;9.05;;
10845;SDS011;5476;51.540;7.186;2023-09-18T03:12:21;8.95;;;7.63;;
10845;SDS011;5476;51.540;7.186;2023-09-18T03:14:48;10.90;;;7.93;;
10845;SDS011;5476;51.540;7.186;2023-09-18T03:17:15;9.25;;;7.75;;
10845;SDS011;5476;51.540;7.186;2023-09-18T03:19:42;8.88;;;8.00;;
10845;SDS011;5476;51.540;7.186;2023-09-18T03:22:08;9.93;;;7.60;;
10845;SDS011;5476;51.540;7.186;2023-09-18T03:24:37;9.07;;;8.00;;
10845;SDS011;5476;51.540;7.186;2023-09-18T03:27:04;8.05;;;6.65;;
10845;SDS011;5476;51.540;7.186;2023-09-18T03:29:31;10.65;;;6.10;;
10845;SDS011;5476;51.540;7.186;2023-09-18T03:31:58;9.77;;;6.43;;
10845;SDS011;5476;51.540;7.186;2023-09-18T03:34:25;7.50;;;5.80;;
10845;SDS011;5476;51.540;7.186;2023-09-18T03:36:52;7.10;;;5.60;;
10845;SDS011;5476;51.540;7.186;2023-09-18T03:39:19;6.95;;;5.57;;
10845;SDS011;5476;51.540;7.186;2023-09-18T03:41:50;7.90;;;4.95;;
10845;SDS011;5476;51.540;7.186;2023-09-18T03:44:16;7.45;;;4.55;;
10845;SDS011;5476;51.540;7.186;2023-09-18T03:46:43;4.90;;;4.28;;
10845;SDS011;5476;51.540;7.186;2023-09-18T03:49:10;7.45;;;4.55;;
10845;SDS011;5476;51.540;7.186;2023-09-18T03:51:37;7.78;;;4.53;;
10845;SDS011;5476;51.540;7.186;2023-09-18T03:54:04;5.85;;;4.45;;
10845;SDS011;5476;51.540;7.186;2023-09-18T03:56:31;5.80;;;4.07;;
10845;SDS011;5476;51.540;7.186;2023-09-18T03:59:01;7.25;;;4.47;;
10845;SDS011;5476;51.540;7.186;2023-09-18T04:01:29;7.25;;;4.60;;
10845;SDS011;5476;51.540;7.186;2023-09-18T04:03:56;8.45;;;4.57;;
10845;SDS011;5476;51.540;7.186;2023-09-18T04:06:25;9.18;;;4.68;;
10845;SDS011;5476;51.540;7.186;2023-09-18T04:09:01;6.78;;;3.90;;
10845;SDS011;5476;51.540;7.186;2023-09-18T04:11:28;8.27;;;4.50;;
10845;SDS011;5476;51.540;7.186;2023-09-18T04:13:57;8.07;;;4.30;;
10845;SDS011;5476;51.540;7.186;2023-09-18T04:16:26;7.13;;;4.07;;
10845;SDS011;5476;51.540;7.186;2023-09-18T04:18:53;5.68;;;4.28;;
10845;SDS011;5476;51.540;7.186;2023-09-18T04:21:20;9.32;;;4.40;;
10845;SDS011;5476;51.540;7.186;2023-09-18T04:23:49;5.95;;;4.43;;
10845;SDS011;5476;51.540;7.186;2023-09-18T04:26:20;10.30;;;4.40;;
10845;SDS011;5476;51.540;7.186;2023-09-18T04:28:48;7.03;;;4.20;;
10845;SDS011;5476;51.540;7.186;2023-09-18T04:31:17;6.78;;;5.05;;
10845;SDS011;5476;51.540;7.186;2023-09-18T04:33:45;7.40;;;4.18;;
10845;SDS011;5476;51.540;7.186;2023-09-18T04:36:12;8.02;;;4.18;;
10845;SDS011;5476;51.540;7.186;2023-09-18T04:38:39;11.32;;;4.38;;
10845;SDS011;5476;51.540;7.186;2023-09-18T04:41:06;7.20;;;4.20;;
10845;SDS011;5476;51.540;7.186;2023-09-18T04:43:34;7.38;;;4.47;;
10845;SDS011;5476;51.540;7.186;2023-09-18T04:46:01;6.55;;;4.25;;
10845;SDS011;5476;51.540;7.186;2023-09-18T04:48:29;10.65;;;4.05;;
10845;SDS011;5476;51.540;7.186;2023-09-18T04:50:58;6.55;;;4.30;;
10845;SDS011;5476;51.540;7.186;2023-09-18T04:53:25;9.57;;;4.50;;
10845;SDS011;5476;51.540;7.186;2023-09-18T04:55:53;7.10;;;4.15;;
10845;SDS011;5476;51.540;7.186;2023-09-18T04:58:20;10.02;;;5.15;;
10845;SDS011;5476;51.540;7.186;2023-09-18T05:00:52;7.72;;;4.40;;
10845;SDS011;5476;51.540;7.186;2023-09-18T05:03:20;7.80;;;4.30;;
10845;SDS011;5476;51.540;7.186;2023-09-18T05:05:47;8.02;;;4.55;;
10845;SDS011;5476;51.540;7.186;2023-09-18T05:08:16;9.40;;;4.53;;
10845;SDS011;5476;51.540;7.186;2023-09-18T05:10:43;9.45;;;4.57;;
10845;SDS011;5476;51.540;7.186;2023-09-18T05:13:10;8.57;;;4.40;;
10845;SDS011;5476;51.540;7.186;2023-09-18T05:15:38;9.85;;;4.97;;
10845;SDS011;5476;51.540;7.186;2023-09-18T05:18:05;10.57;;;6.13;;
10845;SDS011;5476;51.540;7.186;2023-09-18T05:20:32;9.00;;;5.30;;
10845;SDS011;5476;51.540;7.186;2023-09-18T05:23:00;9.00;;;5.28;;
10845;SDS011;5476;51.540;7.186;2023-09-18T05:25:29;11.23;;;4.47;;
10845;SDS011;5476;51.540;7.186;2023-09-18T05:27:58;9.10;;;4.57;;
10845;SDS011;5476;51.540;7.186;2023-09-18T05:30:26;7.10;;;4.55;;
10845;SDS011;5476;51.540;7.186;2023-09-18T05:32:56;10.43;;;5.00;;
10845;SDS011;5476;51.540;7.186;2023-09-18T05:35:29;9.43;;;4.18;;
10845;SDS011;5476;51.540;7.186;2023-09-18T05:37:56;9.25;;;5.00;;
10845;SDS011;5476;51.540;7.186;2023-09-18T05:40:23;9.20;;;4.85;;
10845;SDS011;5476;51.540;7.186;2023-09-18T05:42:53;9.98;;;4.65;;
10845;SDS011;5476;51.540;7.186;2023-09-18T05:45:20;10.45;;;5.00;;
10845;SDS011;5476;51.540;7.186;2023-09-18T05:47:48;8.73;;;4.38;;
10845;SDS011;5476;51.540;7.186;2023-09-18T05:50:16;10.52;;;5.13;;
10845;SDS011;5476;51.540;7.186;2023-09-18T05:52:43;10.40;;;4.18;;
10845;SDS011;5476;51.540;7.186;2023-09-18T05:55:11;8.43;;;4.20;;
10845;SDS011;5476;51.540;7.186;2023-09-18T05:57:42;8.60;;;4.68;;
10845;SDS011;5476;51.540;7.186;2023-09-18T06:00:11;7.32;;;4.00;;
10845;SDS011;5476;51.540;7.186;2023-09-18T06:02:40;8.10;;;4.47;;
10845;SDS011;5476;51.540;7.186;2023-09-18T06:05:08;7.70;;;4.20;;
10845;SDS011;5476;51.540;7.186;2023-09-18T06:07:36;10.38;;;4.88;;
10845;SDS011;5476;51.540;7.186;2023-09-18T06:10:04;6.65;;;3.92;;
10845;SDS011;5476;51.540;7.186;2023-09-18T06:12:32;8.52;;;3.88;;
10845;SDS011;5476;51.540;7.186;2023-09-18T06:14:59;9.20;;;4.65;;
10845;SDS011;5476;51.540;7.186;2023-09-18T06:17:27;7.88;;;4.13;;
10845;SDS011;5476;51.540;7.186;2023-09-18T06:19:54;5.40;;;3.95;;
10845;SDS011;5476;51.540;7.186;2023-09-18T06:22:21;12.75;;;5.20;;
10845;SDS011;5476;51.540;7.186;2023-09-18T06:24:48;9.73;;;4.45;;
10845;SDS011;5476;51.540;7.186;2023-09-18T06:27:16;9.88;;;5.88;;
10845;SDS011;5476;51.540;7.186;2023-09-18T06:29:44;9.05;;;4.60;;
10845;SDS011;5476;51.540;7.186;2023-09-18T06:32:11;9.02;;;4.38;;
10845;SDS011;5476;51.540;7.186;2023-09-18T06:34:40;11.00;;;4.30;;
10845;SDS011;5476;51.540;7.186;2023-09-18T06:37:08;11.77;;;4.43;;
10845;SDS011;5476;51.540;7.186;2023-09-18T06:39:37;11.15;;;4.10;;
10845;SDS011;5476;51.540;7.186;2023-09-18T06:42:06;7.28;;;4.35;;
10845;SDS011;5476;51.540;7.186;2023-09-18T06:44:33;9.82;;;4.63;;
10845;SDS011;5476;51.540;7.186;2023-09-18T06:47:00;7.28;;;3.67;;
10845;SDS011;5476;51.540;7.186;2023-09-18T06:49:27;11.45;;;4.35;;
10845;SDS011;5476;51.540;7.186;2023-09-18T06:51:55;7.57;;;4.22;;
10845;SDS011;5476;51.540;7.186;2023-09-18T06:54:22;7.60;;;3.72;;
10845;SDS011;5476;51.540;7.186;2023-09-18T06:56:49;8.15;;;4.38;;
10845;SDS011;5476;51.540;7.186;2023-09-18T06:59:16;8.95;;;4.20;;
10845;SDS011;5476;51.540;7.186;2023-09-18T07:01:43;9.95;;;4.10;;
10845;SDS011;5476;51.540;7.186;2023-09-18T07:04:10;9.80;;;3.85;;
10845;SDS011;5476;51.540;7.186;2023-09-18T07:06:37;8.90;;;3.90;;
10845;SDS011;5476;51.540;7.186;2023-09-18T07:09:05;9.82;;;3.65;;
10845;SDS011;5476;51.540;7.186;2023-09-18T07:11:33;12.30;;;3.72;;
10845;SDS011;5476;51.540;7.186;2023-09-18T07:19:57;9.55;;;3.70;;
10845;SDS011;5476;51.540;7.186;2023-09-18T07:22:28;6.05;;;3.03;;
10845;SDS011;5476;51.540;7.186;2023-09-18T07:24:56;6.10;;;2.60;;
10845;SDS011;5476;51.540;7.186;2023-09-18T07:27:24;5.75;;;2.88;;
10845;SDS011;5476;51.540;7.186;2023-09-18T07:29:51;8.88;;;3.20;;
10845;SDS011;5476;51.540;7.186;2023-09-18T07:32:18;5.55;;;2.60;;
10845;SDS011;5476;51.540;7.186;2023-09-18T07:34:45;6.85;;;2.53;;
10845;SDS011;5476;51.540;7.186;2023-09-18T07:37:13;6.45;;;2.97;;
10845;SDS011;5476;51.540;7.186;2023-09-18T07:39:40;16.65;;;3.75;;
10845;SDS011;5476;51.540;7.186;2023-09-18T07:42:09;4.22;;;2.65;;
10845;SDS011;5476;51.540;7.186;2023-09-18T07:44:37;4.97;;;2.35;;
10845;SDS011;5476;51.540;7.186;2023-09-18T07:47:04;5.25;;;2.60;;
10845;SDS011;5476;51.540;7.186;2023-09-18T07:49:31;8.05;;;2.83;;
10845;SDS011;5476;51.540;7.186;2023-09-18T07:51:58;5.72;;;2.80;;
10845;SDS011;5476;51.540;7.186;2023-09-18T07:54:25;3.78;;;2.88;;
10845;SDS011;5476;51.540;7.186;2023-09-18T07:56:52;5.43;;;2.72;;
10845;SDS011;5476;51.540;7.186;2023-09-18T07:59:21;6.55;;;2.50;;
10845;SDS011;5476;51.540;7.186;2023-09-18T08:01:50;9.00;;;2.97;;
10845;SDS011;5476;51.540;7.186;2023-09-18T08:04:17;5.95;;;2.50;;
10845;SDS011;5476;51.540;7.186;2023-09-18T08:06:44;8.25;;;4.15;;
10845;SDS011;5476;51.540;7.186;2023-09-18T08:09:11;7.00;;;2.42;;
10845;SDS011;5476;51.540;7.186;2023-09-18T08:11:40;5.72;;;2.25;;
10845;SDS011;5476;51.540;7.186;2023-09-18T08:14:08;4.57;;;2.30;;
10845;SDS011;5476;51.540;7.186;2023-09-18T08:16:37;4.43;;;2.30;;
10845;SDS011;5476;51.540;7.186;2023-09-18T08:19:05;5.03;;;2.40;;
10845;SDS011;5476;51.540;7.186;2023-09-18T08:21:33;3.70;;;2.20;;
10845;SDS011;5476;51.540;7.186;2023-09-18T08:24:01;5.45;;;2.60;;
10845;SDS011;5476;51.540;7.186;2023-09-18T08:26:31;4.50;;;2.30;;
10845;SDS011;5476;51.540;7.186;2023-09-18T08:28:59;4.40;;;2.50;;
10845;SDS011;5476;51.540;7.186;2023-09-18T08:31:42;3.35;;;2.00;;
10845;SDS011;5476;51.540;7.186;2023-09-18T08:34:10;2.83;;;2.20;;
10845;SDS011;5476;51.540;7.186;2023-09-18T08:36:38;3.30;;;2.22;;
10845;SDS011;5476;51.540;7.186;2023-09-18T08:39:20;5.07;;;2.38;;
10845;SDS011;5476;51.540;7.186;2023-09-18T08:41:51;5.05;;;2.22;;
10845;SDS011;5476;51.540;7.186;2023-09-18T08:44:21;4.53;;;2.22;;
10845;SDS011;5476;51.540;7.186;2023-09-18T08:46:55;3.10;;;2.35;;
10845;SDS011;5476;51.540;7.186;2023-09-18T08:49:25;3.42;;;1.77;;
10845;SDS011;5476;51.540;7.186;2023-09-18T08:51:55;4.10;;;2.00;;
10845;SDS011;5476;51.540;7.186;2023-09-18T08:54:24;3.38;;;1.67;;
10845;SDS011;5476;51.540;7.186;2023-09-18T08:57:01;3.15;;;1.70;;
10845;SDS011;5476;51.540;7.186;2023-09-18T08:59:33;5.68;;;1.88;;
10845;SDS011;5476;51.540;7.186;2023-09-18T09:02:05;6.28;;;2.20;;
10845;SDS011;5476;51.540;7.186;2023-09-18T09:04:36;6.80;;;4.45;;
10845;SDS011;5476;51.540;7.186;2023-09-18T09:07:04;3.80;;;2.40;;
10845;SDS011;5476;51.540;7.186;2023-09-18T09:09:32;3.35;;;1.80;;
10845;SDS011;5476;51.540;7.186;2023-09-18T09:12:08;3.22;;;1.65;;
10845;SDS011;5476;51.540;7.186;2023-09-18T09:15:08;3.15;;;1.83;;
10845;SDS011;5476;51.540;7.186;2023-09-18T09:17:46;3.63;;;1.90;;
10845;SDS011;5476;51.540;7.186;2023-09-18T09:20:20;3.13;;;1.95;;
10845;SDS011;5476;51.540;7.186;2023-09-18T09:22:51;4.22;;;1.95;;
10845;SDS011;5476;51.540;7.186;2023-09-18T09:25:49;2.92;;;1.80;;
10845;SDS011;5476;51.540;7.186;2023-09-18T09:28:28;2.22;;;2.00;;
10845;SDS011;5476;51.540;7.186;2023-09-18T09:34:25;2.50;;;1.60;;
10845;SDS011;5476;51.540;7.186;2023-09-18T09:36:58;3.47;;;2.08;;
10845;SDS011;5476;51.540;7.186;2023-09-18T09:39:47;3.15;;;1.63;;
10845;SDS011;5476;51.540;7.186;2023-09-18T09:42:37;2.78;;;1.90;;
10845;SDS011;5476;51.540;7.186;2023-09-18T09:45:35;2.38;;;1.48;;
10845;SDS011;5476;51.540;7.186;2023-09-18T09:48:03;2.95;;;1.70;;
10845;SDS011;5476;51.540;7.186;2023-09-18T09:50:45;3.83;;;1.80;;
10845;SDS011;5476;51.540;7.186;2023-09-18T09:53:44;3.53;;;1.70;;
10845;SDS011;5476;51.540;7.186;2023-09-18T09:56:16;2.10;;;1.45;;
10845;SDS011;5476;51.540;7.186;2023-09-18T09:58:59;4.88;;;1.70;;
10845;SDS011;5476;51.540;7.186;2023-09-18T10:01:37;3.17;;;1.75;;
10845;SDS011;5476;51.540;7.186;2023-09-18T10:04:06;2.30;;;1.75;;
10845;SDS011;5476;51.540;7.186;2023-09-18T10:06:40;3.00;;;1.63;;
10845;SDS011;5476;51.540;7.186;2023-09-18T10:09:20;2.38;;;1.58;;
10845;SDS011;5476;51.540;7.186;2023-09-18T10:12:01;3.55;;;1.63;;
10845;SDS011;5476;51.540;7.186;2023-09-18T10:14:39;2.35;;;1.35;;
10845;SDS011;5476;51.540;7.186;2023-09-18T10:17:09;3.70;;;1.73;;
10845;SDS011;5476;51.540;7.186;2023-09-18T10:19:45;3.30;;;1.90;;
10845;SDS011;5476;51.540;7.186;2023-09-18T10:22:24;2.80;;;2.03;;
10845;SDS011;5476;51.540;7.186;2023-09-18T10:25:17;4.25;;;1.88;;
10845;SDS011;5476;51.540;7.186;2023-09-18T10:27:57;3.63;;;1.80;;
10845;SDS011;5476;51.540;7.186;2023-09-18T10:30:39;2.90;;;1.77;;
10845;SDS011;5476;51.540;7.186;2023-09-18T10:33:08;4.00;;;2.25;;
10845;SDS011;5476;51.540;7.186;2023-09-18T10:35:39;2.63;;;1.73;;
10845;SDS011;5476;51.540;7.186;2023-09-18T10:38:09;6.57;;;2.17;;
10845;SDS011;5476;51.540;7.186;2023-09-18T10:40:40;4.05;;;1.92;;
10845;SDS011;5476;51.540;7.186;2023-09-18T10:43:15;3.90;;;2.20;;
10845;SDS011;5476;51.540;7.186;2023-09-18T10:45:57;6.18;;;2.00;;
10845;SDS011;5476;51.540;7.186;2023-09-18T10:48:25;3.13;;;1.70;;
10845;SDS011;5476;51.540;7.186;2023-09-18T10:50:53;2.10;;;1.70;;
10845;SDS011;5476;51.540;7.186;2023-09-18T10:53:22;3.45;;;1.83;;
10845;SDS011;5476;51.540;7.186;2023-09-18T10:55:52;3.63;;;1.88;;
10845;SDS011;5476;51.540;7.186;2023-09-18T10:58:23;1.70;;;1.60;;
10845;SDS011;5476;51.540;7.186;2023-09-18T11:00:51;4.57;;;1.50;;
10845;SDS011;5476;51.540;7.186;2023-09-18T11:03:23;3.25;;;1.80;;
10845;SDS011;5476;51.540;7.186;2023-09-18T11:06:01;2.10;;;1.73;;
10845;SDS011;5476;51.540;7.186;2023-09-18T11:08:32;3.80;;;1.80;;
10845;SDS011;5476;51.540;7.186;2023-09-18T11:11:01;4.32;;;1.80;;
10845;SDS011;5476;51.540;7.186;2023-09-18T11:13:38;4.88;;;1.90;;
10845;SDS011;5476;51.540;7.186;2023-09-18T11:16:16;3.47;;;2.10;;
10845;SDS011;5476;51.540;7.186;2023-09-18T11:18:51;2.28;;;1.80;;
10845;SDS011;5476;51.540;7.186;2023-09-18T11:21:23;2.45;;;1.90;;
10845;SDS011;5476;51.540;7.186;2023-09-18T11:24:00;3.05;;;1.85;;
10845;SDS011;5476;51.540;7.186;2023-09-18T11:26:30;3.47;;;2.20;;
10845;SDS011;5476;51.540;7.186;2023-09-18T11:28:58;5.40;;;2.20;;
10845;SDS011;5476;51.540;7.186;2023-09-18T11:31:43;2.72;;;2.00;;
10845;SDS011;5476;51.540;7.186;2023-09-18T11:34:12;2.78;;;2.00;;
10845;SDS011;5476;51.540;7.186;2023-09-18T11:36:51;2.47;;;1.85;;
10845;SDS011;5476;51.540;7.186;2023-09-18T11:42:07;3.67;;;1.88;;
10845;SDS011;5476;51.540;7.186;2023-09-18T11:44:35;3.13;;;2.08;;
10845;SDS011;5476;51.540;7.186;2023-09-18T11:47:09;2.15;;;1.90;;
10845;SDS011;5476;51.540;7.186;2023-09-18T11:49:47;4.03;;;1.90;;
10845;SDS011;5476;51.540;7.186;2023-09-18T11:52:21;2.17;;;1.67;;
10845;SDS011;5476;51.540;7.186;2023-09-18T11:54:51;3.95;;;2.03;;
10845;SDS011;5476;51.540;7.186;2023-09-18T11:57:22;2.90;;;2.00;;
10845;SDS011;5476;51.540;7.186;2023-09-18T11:59:50;3.53;;;2.00;;
10845;SDS011;5476;51.540;7.186;2023-09-18T12:02:24;3.67;;;2.10;;
10845;SDS011;5476;51.540;7.186;2023-09-18T12:05:00;3.58;;;1.80;;
10845;SDS011;5476;51.540;7.186;2023-09-18T12:07:33;3.50;;;1.80;;
10845;SDS011;5476;51.540;7.186;2023-09-18T12:10:03;3.75;;;2.10;;
10845;SDS011;5476;51.540;7.186;2023-09-18T12:12:32;2.17;;;1.90;;
10845;SDS011;5476;51.540;7.186;2023-09-18T12:14:59;2.85;;;1.70;;
10845;SDS011;5476;51.540;7.186;2023-09-18T12:17:26;2.75;;;1.77;;
10845;SDS011;5476;51.540;7.186;2023-09-18T12:19:56;3.75;;;2.08;;
10845;SDS011;5476;51.540;7.186;2023-09-18T12:22:25;2.38;;;2.00;;
10845;SDS011;5476;51.540;7.186;2023-09-18T12:25:10;3.55;;;2.40;;
10845;SDS011;5476;51.540;7.186;2023-09-18T12:27:39;2.45;;;1.98;;
10845;SDS011;5476;51.540;7.186;2023-09-18T12:30:06;3.30;;;2.20;;
10845;SDS011;5476;51.540;7.186;2023-09-18T12:32:35;3.08;;;2.08;;
10845;SDS011;5476;51.540;7.186;2023-09-18T12:35:05;3.35;;;2.17;;
10845;SDS011;5476;51.540;7.186;2023-09-18T12:37:35;4.65;;;2.28;;
10845;SDS011;5476;51.540;7.186;2023-09-18T12:40:02;4.05;;;2.30;;
10845;SDS011;5476;51.540;7.186;2023-09-18T12:42:37;4.28;;;2.03;;
10845;SDS011;5476;51.540;7.186;2023-09-18T12:45:09;2.30;;;1.90;;
10845;SDS011;5476;51.540;7.186;2023-09-18T12:47:39;2.97;;;2.10;;
10845;SDS011;5476;51.540;7.186;2023-09-18T12:50:06;3.10;;;2.15;;
10845;SDS011;5476;51.540;7.186;2023-09-18T12:52:36;4.03;;;2.10;;
10845;SDS011;5476;51.540;7.186;2023-09-18T12:55:03;3.03;;;2.20;;
10845;SDS011;5476;51.540;7.186;2023-09-18T12:57:32;4.45;;;2.10;;
10845;SDS011;5476;51.540;7.186;2023-09-18T13:00:07;2.67;;;1.75;;
10845;SDS011;5476;51.540;7.186;2023-09-18T13:02:39;3.25;;;2.00;;
10845;SDS011;5476;51.540;7.186;2023-09-18T13:05:11;2.60;;;1.88;;
10845;SDS011;5476;51.540;7.186;2023-09-18T13:07:43;4.63;;;2.13;;
10845;SDS011;5476;51.540;7.186;2023-09-18T13:10:18;3.58;;;2.30;;
10845;SDS011;5476;51.540;7.186;2023-09-18T13:12:47;3.13;;;2.30;;
10845;SDS011;5476;51.540;7.186;2023-09-18T13:15:25;3.60;;;2.17;;
10845;SDS011;5476;51.540;7.186;2023-09-18T13:17:53;3.08;;;2.00;;
10845;SDS011;5476;51.540;7.186;2023-09-18T13:20:32;3.83;;;2.08;;
10845;SDS011;5476;51.540;7.186;2023-09-18T13:23:05;3.55;;;2.00;;
10845;SDS011;5476;51.540;7.186;2023-09-18T13:25:33;4.32;;;1.88;;
10845;SDS011;5476;51.540;7.186;2023-09-18T13:28:02;2.63;;;1.90;;
10845;SDS011;5476;51.540;7.186;2023-09-18T13:30:32;4.40;;;2.20;;
10845;SDS011;5476;51.540;7.186;2023-09-18T13:33:04;2.58;;;1.63;;
10845;SDS011;5476;51.540;7.186;2023-09-18T13:35:32;2.83;;;2.28;;
10845;SDS011;5476;51.540;7.186;2023-09-18T13:38:00;5.22;;;2.13;;
10845;SDS011;5476;51.540;7.186;2023-09-18T13:40:29;5.22;;;2.17;;
10845;SDS011;5476;51.540;7.186;2023-09-18T13:43:04;2.53;;;2.00;;
10845;SDS011;5476;51.540;7.186;2023-09-18T13:48:22;5.32;;;2.15;;
10845;SDS011;5476;51.540;7.186;2023-09-18T13:50:53;4.25;;;2.10;;
10845;SDS011;5476;51.540;7.186;2023-09-18T13:53:35;2.20;;;1.70;;
10845;SDS011;5476;51.540;7.186;2023-09-18T13:56:03;1.88;;;1.70;;
10845;SDS011;5476;51.540;7.186;2023-09-18T13:58:33;3.13;;;2.03;;
10845;SDS011;5476;51.540;7.186;2023-09-18T14:01:04;2.60;;;2.00;;
10845;SDS011;5476;51.540;7.186;2023-09-18T14:03:36;3.72;;;1.92;;
10845;SDS011;5476;51.540;7.186;2023-09-18T14:06:25;3.78;;;2.55;;
10845;SDS011;5476;51.540;7.186;2023-09-18T14:09:01;3.05;;;1.80;;
10845;SDS011;5476;51.540;7.186;2023-09-18T14:11:32;3.17;;;1.83;;
10845;SDS011;5476;51.540;7.186;2023-09-18T14:14:12;2.50;;;1.80;;
10845;SDS011;5476;51.540;7.186;2023-09-18T14:16:41;3.35;;;2.00;;
10845;SDS011;5476;51.540;7.186;2023-09-18T14:19:09;4.00;;;2.17;;
10845;SDS011;5476;51.540;7.186;2023-09-18T14:21:41;1.90;;;1.80;;
10845;SDS011;5476;51.540;7.186;2023-09-18T14:24:09;2.10;;;1.90;;
10845;SDS011;5476;51.540;7.186;2023-09-18T14:26:42;4.07;;;2.13;;
10845;SDS011;5476;51.540;7.186;2023-09-18T14:29:21;2.47;;;1.70;;
10845;SDS011;5476;51.540;7.186;2023-09-18T14:32:12;2.33;;;1.90;;
10845;SDS011;5476;51.540;7.186;2023-09-18T14:34:44;2.15;;;1.70;;
10845;SDS011;5476;51.540;7.186;2023-09-18T14:40:14;4.13;;;2.00;;
10845;SDS011;5476;51.540;7.186;2023-09-18T14:42:57;2.47;;;1.98;;
10845;SDS011;5476;51.540;7.186;2023-09-18T14:45:27;2.08;;;1.92;;
10845;SDS011;5476;51.540;7.186;2023-09-18T14:48:09;4.20;;;2.28;;
10845;SDS011;5476;51.540;7.186;2023-09-18T14:50:52;4.55;;;2.20;;
10845;SDS011;5476;51.540;7.186;2023-09-18T14:53:34;3.50;;;2.40;;
10845;SDS011;5476;51.540;7.186;2023-09-18T14:56:04;3.40;;;2.20;;
10845;SDS011;5476;51.540;7.186;2023-09-18T14:58:32;2.67;;;1.98;;
10845;SDS011;5476;51.540;7.186;2023-09-18T15:01:17;5.00;;;2.00;;
10845;SDS011;5476;51.540;7.186;2023-09-18T15:04:28;3.30;;;1.92;;
10845;SDS011;5476;51.540;7.186;2023-09-18T15:21:19;4.18;;;1.80;;
10845;SDS011;5476;51.540;7.186;2023-09-18T15:23:56;2.30;;;2.10;;
10845;SDS011;5476;51.540;7.186;2023-09-18T15:26:45;2.25;;;1.60;;
10845;SDS011;5476;51.540;7.186;2023-09-18T15:29:15;2.97;;;1.70;;
10845;SDS011;5476;51.540;7.186;2023-09-18T15:32:29;1.88;;;1.67;;
10845;SDS011;5476;51.540;7.186;2023-09-18T15:34:56;2.22;;;1.63;;
10845;SDS011;5476;51.540;7.186;2023-09-18T15:37:25;2.67;;;1.80;;
10845;SDS011;5476;51.540;7.186;2023-09-18T15:40:00;2.67;;;2.03;;
10845;SDS011;5476;51.540;7.186;2023-09-18T15:42:36;4.80;;;1.70;;
10845;SDS011;5476;51.540;7.186;2023-09-18T15:45:13;3.72;;;1.90;;
10845;SDS011;5476;51.540;7.186;2023-09-18T15:47:43;2.15;;;1.95;;
10845;SDS011;5476;51.540;7.186;2023-09-18T15:50:34;4.90;;;1.92;;
10845;SDS011;5476;51.540;7.186;2023-09-18T15:53:19;3.95;;;2.05;;
10845;SDS011;5476;51.540;7.186;2023-09-18T15:58:52;3.03;;;1.85;;